createdAt,value
2019-01-25T00:02:41.414Z,23.57
2019-01-25T00:05:29.997Z,21.30
2019-01-25T00:08:18.417Z,19.83
2019-01-25T00:11:07.126Z,21.03
2019-01-25T00:13:55.651Z,22.67
2019-01-25T00:16:44.220Z,22.80
2019-01-25T00:19:32.505Z,25.83
2019-01-25T00:22:20.917Z,24.67
2019-01-25T00:25:10.763Z,23.70
2019-01-25T00:27:59.161Z,22.17
2019-01-25T00:30:47.710Z,20.70
2019-01-25T00:33:35.952Z,18.67
2019-01-25T00:36:24.181Z,22.67
2019-01-25T00:39:12.923Z,25.07
2019-01-25T00:42:01.270Z,22.93
2019-01-25T00:44:49.551Z,26.70
2019-01-25T00:47:37.578Z,24.93
2019-01-25T00:50:25.864Z,21.87
2019-01-25T00:53:14.346Z,25.23
2019-01-25T00:56:02.740Z,23.07
2019-01-25T00:58:51.195Z,22.27
2019-01-25T01:01:40.504Z,23.53
2019-01-25T01:04:28.769Z,23.10
2019-01-25T01:07:17.344Z,24.20
2019-01-25T01:10:14.026Z,21.47
2019-01-25T01:12:58.971Z,19.97
2019-01-25T01:15:47.455Z,21.23
2019-01-25T01:18:35.722Z,22.90
2019-01-25T01:21:24.130Z,22.30
2019-01-25T01:24:12.504Z,23.43
2019-01-25T01:27:00.864Z,24.77
2019-01-25T01:29:49.089Z,20.60
2019-01-25T01:32:37.346Z,23.67
2019-01-25T01:35:25.681Z,26.07
2019-01-25T01:38:14.087Z,24.80
2019-01-25T01:41:08.160Z,21.87
2019-01-25T01:43:56.304Z,22.80
2019-01-25T01:46:44.527Z,21.60
2019-01-25T01:49:33.816Z,22.40
2019-01-25T01:52:22.080Z,22.60
2019-01-25T01:55:11.981Z,26.23
2019-01-25T01:58:00.257Z,20.30
2019-01-25T02:00:48.267Z,22.03
2019-01-25T02:03:36.480Z,26.97
2019-01-25T02:06:24.937Z,23.73
2019-01-25T02:09:13.757Z,23.23
2019-01-25T02:12:02.756Z,20.53
2019-01-25T02:14:51.222Z,20.63
2019-01-25T02:17:39.565Z,25.07
2019-01-25T02:20:28.819Z,23.07
2019-01-25T02:23:17.343Z,23.80
2019-01-25T02:26:07.401Z,27.20
2019-01-25T02:28:55.414Z,22.40
2019-01-25T02:31:43.586Z,21.90
2019-01-25T02:34:31.667Z,23.00
2019-01-25T02:37:19.939Z,24.03
2019-01-25T02:40:11.291Z,23.40
2019-01-25T02:42:59.564Z,21.30
2019-01-25T02:45:48.445Z,19.37
2019-01-25T02:48:36.799Z,28.53
2019-01-25T02:51:25.150Z,24.13
2019-01-25T02:54:13.224Z,24.20
2019-01-25T02:57:01.807Z,23.27
2019-01-25T02:59:50.434Z,24.20
2019-01-25T03:02:39.210Z,26.23
2019-01-25T03:05:27.558Z,23.57
2019-01-25T03:08:16.106Z,20.67
2019-01-25T03:11:05.948Z,21.50
2019-01-25T03:13:54.439Z,21.70
2019-01-25T03:16:42.929Z,21.53
2019-01-25T03:19:31.404Z,23.40
2019-01-25T03:22:19.378Z,22.83
2019-01-25T03:25:10.740Z,22.10
2019-01-25T03:27:59.493Z,22.43
2019-01-25T03:30:47.940Z,22.73
2019-01-25T03:33:37.245Z,22.10
2019-01-25T03:36:25.591Z,22.97
2019-01-25T03:39:14.081Z,25.20
2019-01-25T03:42:02.509Z,24.70
2019-01-25T03:44:51.108Z,23.00
2019-01-25T03:47:39.363Z,22.17
2019-01-25T03:50:29.295Z,21.30
2019-01-25T03:53:17.395Z,20.77
2019-01-25T03:56:05.530Z,23.37
2019-01-25T03:58:53.763Z,24.67
2019-01-25T04:01:42.166Z,21.27
2019-01-25T04:04:30.195Z,21.70
2019-01-25T04:07:18.626Z,22.00
2019-01-25T04:10:10.169Z,25.00
2019-01-25T04:12:59.727Z,22.43
2019-01-25T04:15:48.245Z,18.63
2019-01-25T04:18:37.191Z,24.67
2019-01-25T04:21:25.309Z,21.40
2019-01-25T04:24:13.662Z,22.13
2019-01-25T04:27:01.858Z,18.73
2019-01-25T04:29:50.166Z,18.07
2019-01-25T04:32:38.292Z,18.07
2019-01-25T04:35:26.804Z,20.97
2019-01-25T04:41:26.875Z,20.97
2019-01-25T04:44:15.337Z,21.00
2019-01-25T04:47:03.529Z,19.57
2019-01-25T04:49:52.735Z,20.80
2019-01-25T04:52:40.872Z,24.60
2019-01-25T04:55:31.273Z,20.57
2019-01-25T04:58:19.640Z,21.37
2019-01-25T05:01:09.269Z,22.60
2019-01-25T05:03:57.589Z,20.97
2019-01-25T05:06:46.071Z,18.73
2019-01-25T05:09:37.966Z,21.90
2019-01-25T05:12:26.032Z,17.53
2019-01-25T05:15:14.628Z,18.90
2019-01-25T05:18:03.067Z,17.50
2019-01-25T05:20:51.672Z,21.97
2019-01-25T05:23:39.942Z,19.70
2019-01-25T05:26:28.240Z,19.43
2019-01-25T05:29:19.749Z,20.83
2019-01-25T05:32:07.933Z,24.47
2019-01-25T05:34:56.437Z,19.27
2019-01-25T05:37:44.746Z,21.10
2019-01-25T05:40:33.118Z,20.20
2019-01-25T05:43:21.276Z,18.20
2019-01-25T05:46:09.744Z,19.67
2019-01-25T05:48:58.386Z,17.70
2019-01-25T05:51:46.826Z,20.00
2019-01-25T05:54:35.012Z,21.43
2019-01-25T05:57:23.355Z,18.30
2019-01-25T06:00:14.708Z,22.93
2019-01-25T06:03:08.561Z,25.47
2019-01-25T06:05:59.636Z,17.33
2019-01-25T06:08:47.896Z,19.83
2019-01-25T06:11:38.856Z,17.43
2019-01-25T06:14:27.117Z,19.50
2019-01-25T06:17:15.597Z,23.93
2019-01-25T06:20:07.415Z,20.03
2019-01-25T06:22:57.127Z,21.67
2019-01-25T06:25:50.112Z,18.67
2019-01-25T06:28:38.380Z,16.73
2019-01-25T06:31:26.547Z,15.90
2019-01-25T06:34:14.556Z,17.60
2019-01-25T06:37:02.775Z,17.17
2019-01-25T06:39:51.426Z,15.47
2019-01-25T06:42:39.776Z,18.10
2019-01-25T06:45:28.174Z,20.07
2019-01-25T06:48:16.643Z,24.10
2019-01-25T06:51:05.566Z,24.20
2019-01-25T06:53:54.427Z,25.27
2019-01-25T06:56:43.131Z,39.30
2019-01-25T06:59:34.033Z,38.20
2019-01-25T07:02:22.889Z,24.77
2019-01-25T07:05:12.117Z,30.47
2019-01-25T07:08:00.590Z,27.97
2019-01-25T07:10:49.143Z,28.90
2019-01-25T07:13:37.591Z,26.53
2019-01-25T07:16:26.131Z,27.03
2019-01-25T07:19:14.383Z,27.80
2019-01-25T07:22:02.691Z,33.10
2019-01-25T07:24:57.175Z,35.10
2019-01-25T07:27:40.962Z,46.03
2019-01-25T07:30:29.813Z,72.23
2019-01-25T07:33:17.951Z,52.63
2019-01-25T07:36:06.359Z,66.60
2019-01-25T07:38:54.688Z,69.53
2019-01-25T07:41:43.098Z,69.03
2019-01-25T07:44:31.396Z,59.93
2019-01-25T07:47:20.245Z,61.47
2019-01-25T07:50:11.823Z,60.03
2019-01-25T07:53:00.230Z,63.57
2019-01-25T07:55:49.010Z,75.23
2019-01-25T07:58:37.169Z,52.40
2019-01-25T08:01:25.493Z,51.77
2019-01-25T08:04:13.642Z,45.83
2019-01-25T08:07:02.144Z,53.27
2019-01-25T08:09:50.702Z,63.77
2019-01-25T08:12:39.325Z,47.80
2019-01-25T08:15:28.330Z,47.53
2019-01-25T08:18:16.698Z,68.20
2019-01-25T08:21:05.017Z,54.83
2019-01-25T08:23:53.195Z,48.80
2019-01-25T08:26:41.389Z,41.20
2019-01-25T08:29:30.076Z,42.50
2019-01-25T08:32:18.318Z,45.97
2019-01-25T08:35:10.270Z,45.90
2019-01-25T08:37:58.545Z,43.83
2019-01-25T08:40:47.636Z,46.97
2019-01-25T08:43:35.752Z,37.73
2019-01-25T08:46:25.034Z,45.53
2019-01-25T08:49:13.545Z,54.33
2019-01-25T08:52:02.345Z,60.70
2019-01-25T08:54:50.515Z,49.00
2019-01-25T08:57:38.855Z,46.93
2019-01-25T09:00:27.632Z,49.50
2019-01-25T09:03:16.293Z,44.83
2019-01-25T09:06:04.962Z,47.07
2019-01-25T09:08:53.260Z,49.20
2019-01-25T09:11:41.654Z,42.03
2019-01-25T09:14:30.107Z,39.73
2019-01-25T09:17:18.908Z,35.77
2019-01-25T09:20:14.600Z,46.30
2019-01-25T09:23:00.568Z,37.53
2019-01-25T09:25:48.746Z,48.93
2019-01-25T09:28:37.119Z,37.90
2019-01-25T09:31:25.339Z,35.30
2019-01-25T09:34:13.772Z,35.00
2019-01-25T09:37:02.326Z,39.13
2019-01-25T09:39:50.743Z,41.37
2019-01-25T09:42:39.062Z,40.80
2019-01-25T09:45:27.610Z,44.73
2019-01-25T09:48:16.149Z,39.30
2019-01-25T09:51:04.749Z,32.67
2019-01-25T09:53:53.080Z,36.50
2019-01-25T09:56:41.616Z,36.77
2019-01-25T09:59:30.070Z,37.33
2019-01-25T10:02:18.559Z,31.90
2019-01-25T10:05:07.640Z,35.13
2019-01-25T10:07:56.217Z,41.33
2019-01-25T10:10:44.835Z,33.70
2019-01-25T10:13:33.919Z,38.90
2019-01-25T10:16:22.234Z,33.47
2019-01-25T10:19:10.783Z,33.57
2019-01-25T10:21:59.186Z,30.63
2019-01-25T10:24:47.315Z,37.53
2019-01-25T10:27:36.018Z,38.33
2019-01-25T10:30:28.197Z,32.17
2019-01-25T10:33:16.292Z,34.37
2019-01-25T10:36:05.016Z,30.97
2019-01-25T10:38:53.269Z,31.07
2019-01-25T10:41:41.665Z,27.97
2019-01-25T10:44:30.323Z,30.37
2019-01-25T10:47:18.573Z,29.13
2019-01-25T10:50:09.059Z,28.23
2019-01-25T10:52:57.539Z,32.00
2019-01-25T10:55:45.860Z,32.93
2019-01-25T10:58:34.202Z,30.37
2019-01-25T11:01:22.189Z,28.13
2019-01-25T11:04:11.693Z,25.67
2019-01-25T11:07:00.072Z,31.53
2019-01-25T11:09:48.613Z,29.30
2019-01-25T11:12:37.320Z,27.50
2019-01-25T11:15:26.256Z,31.60
2019-01-25T11:18:14.737Z,25.77
2019-01-25T11:21:03.048Z,34.23
2019-01-25T11:23:51.652Z,28.10
2019-01-25T11:26:39.797Z,27.57
2019-01-25T11:29:28.127Z,28.83
2019-01-25T11:32:16.856Z,25.77
2019-01-25T11:35:06.382Z,27.83
2019-01-25T11:37:55.063Z,29.27
2019-01-25T11:40:44.879Z,26.27
2019-01-25T11:43:33.239Z,31.80
2019-01-25T11:46:21.261Z,25.17
2019-01-25T11:49:09.659Z,33.93
2019-01-25T11:51:58.366Z,28.93
2019-01-25T11:54:46.499Z,22.33
2019-01-25T11:57:34.790Z,24.40
2019-01-25T12:00:28.866Z,24.13
2019-01-25T12:03:17.118Z,27.73
2019-01-25T12:06:05.544Z,24.80
2019-01-25T12:08:54.821Z,26.13
2019-01-25T12:11:42.923Z,25.93
2019-01-25T12:14:31.557Z,25.90
2019-01-25T12:17:19.593Z,25.83
2019-01-25T12:20:14.983Z,31.80
2019-01-25T12:23:04.162Z,29.43
2019-01-25T12:25:52.396Z,22.43
2019-01-25T12:28:40.700Z,24.27
2019-01-25T12:31:28.874Z,21.67
2019-01-25T12:34:17.411Z,26.10
2019-01-25T12:37:06.007Z,22.23
2019-01-25T12:39:54.486Z,25.00
2019-01-25T12:42:42.940Z,26.40
2019-01-25T12:45:32.181Z,27.00
2019-01-25T12:48:20.515Z,23.57
2019-01-25T12:51:12.253Z,22.00
2019-01-25T12:54:00.685Z,23.40
2019-01-25T12:56:49.101Z,22.73
2019-01-25T12:59:37.705Z,22.00
2019-01-25T13:02:25.961Z,19.70
2019-01-25T13:05:17.394Z,22.23
2019-01-25T13:08:05.905Z,21.67
2019-01-25T13:10:54.203Z,22.80
2019-01-25T13:13:42.807Z,20.80
2019-01-25T13:16:30.987Z,23.53
2019-01-25T13:19:19.675Z,22.27
2019-01-25T13:22:08.013Z,24.80
2019-01-25T13:24:56.465Z,21.27
2019-01-25T13:27:44.949Z,23.57
2019-01-25T13:30:33.330Z,19.13
2019-01-25T13:33:21.527Z,23.37
2019-01-25T13:36:11.014Z,22.40
2019-01-25T13:38:59.588Z,21.47
2019-01-25T13:41:47.818Z,19.83
2019-01-25T13:44:36.018Z,21.10
2019-01-25T13:47:24.511Z,22.67
2019-01-25T13:50:15.830Z,22.47
2019-01-25T13:53:04.790Z,19.23
2019-01-25T13:55:53.015Z,20.90
2019-01-25T13:58:41.713Z,18.17
2019-01-25T14:01:34.538Z,22.27
2019-01-25T14:04:19.796Z,18.37
2019-01-25T14:07:08.258Z,25.63
2019-01-25T14:09:56.445Z,20.60
2019-01-25T14:12:44.884Z,16.40
2019-01-25T14:15:34.061Z,20.13
2019-01-25T14:18:22.601Z,23.40
2019-01-25T14:21:10.965Z,20.37
2019-01-25T14:23:59.432Z,19.07
2019-01-25T14:26:47.717Z,19.77
2019-01-25T14:29:36.398Z,21.07
2019-01-25T14:32:25.020Z,21.03
2019-01-25T14:35:13.549Z,19.10
2019-01-25T14:38:02.121Z,24.63
2019-01-25T14:40:50.693Z,20.60
2019-01-25T14:43:38.794Z,20.80
2019-01-25T14:46:27.154Z,18.20
2019-01-25T14:49:15.137Z,18.60
2019-01-25T14:52:04.404Z,17.50
2019-01-25T14:54:52.585Z,17.50
2019-01-25T14:57:41.101Z,22.10
2019-01-25T15:00:29.452Z,18.17
2019-01-25T15:03:18.137Z,16.90
2019-01-25T15:06:06.852Z,20.87
2019-01-25T15:08:55.338Z,17.47
2019-01-25T15:11:43.611Z,19.67
2019-01-25T15:14:31.724Z,21.87
2019-01-25T15:17:19.996Z,20.80
2019-01-25T15:20:11.567Z,17.77
2019-01-25T15:22:59.894Z,19.70
2019-01-25T15:25:48.190Z,18.00
2019-01-25T15:28:36.652Z,19.70
2019-01-25T15:31:24.887Z,17.10
2019-01-25T15:34:13.372Z,20.63
2019-01-25T15:37:01.960Z,20.33
2019-01-25T15:39:50.440Z,14.70
2019-01-25T15:42:38.717Z,17.90
2019-01-25T15:45:26.934Z,16.20
2019-01-25T15:48:15.245Z,15.50
2019-01-25T15:51:04.028Z,16.23
2019-01-25T15:53:53.041Z,19.20
2019-01-25T15:56:41.211Z,19.10
2019-01-25T15:59:29.880Z,18.60
2019-01-25T16:02:18.083Z,17.93
2019-01-25T16:05:08.746Z,22.57
2019-01-25T16:07:57.021Z,16.23
2019-01-25T16:10:45.251Z,18.60
2019-01-25T16:13:33.616Z,18.20
2019-01-25T16:16:22.346Z,17.80
2019-01-25T16:19:10.719Z,16.33
2019-01-25T16:21:59.272Z,15.73
2019-01-25T16:24:47.565Z,18.00
2019-01-25T16:27:35.858Z,21.23
2019-01-25T16:30:26.964Z,15.37
2019-01-25T16:33:15.430Z,15.23
2019-01-25T16:36:04.926Z,16.37
2019-01-25T16:38:53.225Z,15.30
2019-01-25T16:41:41.437Z,17.83
2019-01-25T16:44:29.521Z,18.53
2019-01-25T16:47:18.128Z,15.87
2019-01-25T16:50:09.191Z,18.13
2019-01-25T16:52:57.405Z,18.97
2019-01-25T16:55:45.906Z,20.10
2019-01-25T16:58:34.550Z,17.07
2019-01-25T17:01:22.844Z,17.40
2019-01-25T17:04:11.552Z,15.63
2019-01-25T17:06:59.837Z,18.33
2019-01-25T17:09:48.173Z,16.23
2019-01-25T17:12:36.697Z,16.40
2019-01-25T17:15:26.651Z,21.63
2019-01-25T17:18:15.874Z,17.73
2019-01-25T17:21:04.028Z,16.50
2019-01-25T17:23:52.368Z,20.07
2019-01-25T17:26:40.580Z,19.90
2019-01-25T17:29:28.980Z,17.50
2019-01-25T17:32:17.218Z,20.20
2019-01-25T17:35:08.211Z,18.10
2019-01-25T17:37:56.508Z,18.03
2019-01-25T17:40:46.735Z,18.00
2019-01-25T17:43:34.348Z,18.97
2019-01-25T17:46:22.973Z,20.23
2019-01-25T17:49:11.417Z,18.33
2019-01-25T17:51:59.788Z,18.63
2019-01-25T17:54:48.022Z,18.37
2019-01-25T17:57:36.239Z,20.47
2019-01-25T18:00:41.360Z,21.93
2019-01-25T18:03:29.417Z,19.60
2019-01-25T18:06:17.890Z,22.53
2019-01-25T18:09:08.096Z,21.37
2019-01-25T18:11:56.729Z,19.80
2019-01-25T18:14:49.384Z,21.80
2019-01-25T18:17:35.104Z,21.07
2019-01-25T18:20:24.454Z,19.20
2019-01-25T18:23:13.065Z,21.80
2019-01-25T18:26:01.736Z,22.33
2019-01-25T18:28:53.189Z,24.87
2019-01-25T18:31:41.400Z,23.77
2019-01-25T18:34:29.924Z,24.20
2019-01-25T18:37:18.096Z,24.60
2019-01-25T18:40:10.855Z,26.03
2019-01-25T18:42:59.047Z,22.90
2019-01-25T18:45:47.611Z,24.63
2019-01-25T18:48:36.277Z,20.53
2019-01-25T18:51:25.081Z,30.33
2019-01-25T18:54:13.302Z,22.90
2019-01-25T18:57:01.567Z,26.17
2019-01-25T18:59:50.157Z,23.70
2019-01-25T19:02:38.436Z,27.63
2019-01-25T19:05:26.958Z,25.03
2019-01-25T19:08:16.071Z,23.20
2019-01-25T19:11:04.312Z,23.67
2019-01-25T19:13:52.785Z,28.33
2019-01-25T19:16:41.317Z,21.87
2019-01-25T19:19:30.208Z,21.67
2019-01-25T19:22:18.494Z,26.00
2019-01-25T19:25:09.327Z,26.27
2019-01-25T19:27:57.821Z,22.97
2019-01-25T19:30:47.303Z,24.00
2019-01-25T19:33:35.596Z,24.50
2019-01-25T19:36:24.022Z,24.43
2019-01-25T19:39:12.469Z,26.17
2019-01-25T19:42:00.917Z,25.67
2019-01-25T19:44:49.262Z,24.50
2019-01-25T19:47:37.595Z,25.20
2019-01-25T19:50:26.146Z,26.43
2019-01-25T19:53:14.448Z,28.00
2019-01-25T19:56:02.943Z,27.97
2019-01-25T19:58:51.616Z,25.27
2019-01-25T20:01:39.921Z,27.27
2019-01-25T20:04:28.288Z,23.80
2019-01-25T20:07:16.989Z,29.60
2019-01-25T20:10:08.152Z,29.60
2019-01-25T20:12:57.532Z,27.23
2019-01-25T20:15:45.869Z,27.07
2019-01-25T20:18:34.500Z,28.10
2019-01-25T20:21:22.772Z,26.50
2019-01-25T20:24:11.180Z,30.13
2019-01-25T20:26:59.421Z,25.40
2019-01-25T20:29:47.656Z,28.07
2019-01-25T20:32:35.931Z,28.40
2019-01-25T20:35:30.050Z,28.00
2019-01-25T20:38:18.462Z,29.93
2019-01-25T20:41:07.317Z,28.03
2019-01-25T20:43:55.542Z,25.13
2019-01-25T20:46:43.655Z,22.53
2019-01-25T20:49:31.803Z,22.93
2019-01-25T20:52:20.370Z,25.87
2019-01-25T20:55:11.769Z,23.13
2019-01-25T20:58:00.868Z,23.53
2019-01-25T21:00:49.191Z,22.30
2019-01-25T21:03:37.839Z,26.43
2019-01-25T21:06:26.130Z,24.07
2019-01-25T21:09:14.572Z,21.20
2019-01-25T21:12:02.801Z,23.40
2019-01-25T21:14:51.037Z,21.20
2019-01-25T21:17:39.365Z,22.53
2019-01-25T21:20:36.151Z,24.00
2019-01-25T21:23:24.391Z,22.00
2019-01-25T21:26:12.932Z,25.13
2019-01-25T21:29:01.540Z,24.00
2019-01-25T21:31:49.554Z,23.23
2019-01-25T21:34:37.799Z,24.53
2019-01-25T21:37:26.092Z,24.80
2019-01-25T21:40:18.096Z,20.93
2019-01-25T21:43:06.591Z,23.00
2019-01-25T21:45:54.668Z,24.47
2019-01-25T21:48:43.075Z,20.00
2019-01-25T21:51:31.419Z,22.63
2019-01-25T21:54:19.783Z,25.00
2019-01-25T21:57:08.364Z,26.20
2019-01-25T21:59:56.709Z,21.70
2019-01-25T22:02:45.736Z,23.47
2019-01-25T22:05:34.295Z,24.83
2019-01-25T22:08:22.546Z,24.47
2019-01-25T22:11:11.213Z,21.53
2019-01-25T22:13:59.343Z,21.43
2019-01-25T22:16:47.760Z,22.67
2019-01-25T22:19:36.322Z,21.03
2019-01-25T22:22:24.570Z,23.07
2019-01-25T22:25:14.248Z,22.70
2019-01-25T22:28:02.686Z,20.70
2019-01-25T22:30:50.951Z,20.80
2019-01-25T22:33:39.056Z,22.47
2019-01-25T22:36:27.695Z,20.57
2019-01-25T22:39:16.292Z,25.43
2019-01-25T22:42:04.544Z,21.40
2019-01-25T22:44:53.402Z,22.80
2019-01-25T22:47:41.775Z,20.93
2019-01-25T22:50:33.813Z,18.60
2019-01-25T22:53:21.858Z,21.77
2019-01-25T22:56:09.909Z,19.23
2019-01-25T22:58:57.993Z,20.47
2019-01-25T23:01:47.049Z,19.63
2019-01-25T23:04:47.375Z,20.47
2019-01-25T23:07:35.888Z,17.33
2019-01-25T23:10:24.112Z,18.93
2019-01-25T23:13:14.131Z,18.13
2019-01-25T23:16:06.520Z,17.60
2019-01-25T23:18:52.627Z,18.10
2019-01-25T23:21:41.878Z,15.93
2019-01-25T23:24:29.743Z,17.00
2019-01-25T23:27:17.819Z,18.60
2019-01-25T23:30:09.243Z,21.57
2019-01-25T23:32:58.573Z,21.27
2019-01-25T23:35:46.992Z,17.37
2019-01-25T23:38:35.153Z,20.43
2019-01-25T23:41:23.706Z,14.97
2019-01-25T23:44:12.369Z,18.30
2019-01-25T23:47:01.010Z,20.90
2019-01-25T23:49:49.363Z,15.23
2019-01-25T23:52:37.624Z,16.90
2019-01-25T23:55:25.827Z,16.67
2019-01-25T23:58:14.123Z,15.77
